sensor_id;sensor_type;location;lat;lon;timestamp;P1;durP1;ratioP1;P2;durP2;ratioP2
38037;SDS011;23843;51.320;12.340;2022-09-20T04:32:39;0.20;;;0.20;;
38037;SDS011;23843;51.320;12.340;2022-09-20T04:35:11;0.17;;;0.17;;
38037;SDS011;23843;51.320;12.340;2022-09-20T04:37:45;0.30;;;0.10;;
38037;SDS011;23843;51.320;12.340;2022-09-20T04:40:13;0.30;;;0.30;;
38037;SDS011;23843;51.320;12.340;2022-09-20T04:48:47;0.37;;;0.20;;
38037;SDS011;23843;51.320;12.340;2022-09-20T04:51:57;0.20;;;0.20;;
38037;SDS011;23843;51.320;12.340;2022-09-20T04:57:48;0.20;;;0.20;;
38037;SDS011;23843;51.320;12.340;2022-09-20T05:00:39;0.30;;;0.30;;
38037;SDS011;23843;51.320;12.340;2022-09-20T05:03:38;0.53;;;0.33;;
38037;SDS011;23843;51.320;12.340;2022-09-20T05:06:36;2.00;;;0.50;;
38037;SDS011;23843;51.320;12.340;2022-09-20T05:09:33;0.73;;;0.53;;
38037;SDS011;23843;51.320;12.340;2022-09-20T05:12:24;0.40;;;0.40;;
38037;SDS011;23843;51.320;12.340;2022-09-20T05:15:19;0.40;;;0.23;;
38037;SDS011;23843;51.320;12.340;2022-09-20T05:21:05;0.03;;;0.03;;
38037;SDS011;23843;51.320;12.340;2022-09-20T05:23:45;0.20;;;0.20;;
38037;SDS011;23843;51.320;12.340;2022-09-20T05:26:25;0.27;;;0.10;;
38037;SDS011;23843;51.320;12.340;2022-09-20T05:29:02;0.20;;;0.20;;
38037;SDS011;23843;51.320;12.340;2022-09-20T05:31:35;0.10;;;0.10;;
38037;SDS011;23843;51.320;12.340;2022-09-20T05:34:07;0.10;;;0.10;;
38037;SDS011;23843;51.320;12.340;2022-09-20T05:36:44;0.10;;;0.10;;
38037;SDS011;23843;51.320;12.340;2022-09-20T05:39:20;0.20;;;0.20;;
38037;SDS011;23843;51.320;12.340;2022-09-20T05:41:58;0.10;;;0.10;;
38037;SDS011;23843;51.320;12.340;2022-09-20T05:44:29;0.57;;;0.47;;
38037;SDS011;23843;51.320;12.340;2022-09-20T05:47:07;0.53;;;0.40;;
38037;SDS011;23843;51.320;12.340;2022-09-20T05:49:44;0.30;;;0.30;;
38037;SDS011;23843;51.320;12.340;2022-09-20T05:55:16;0.77;;;0.40;;
38037;SDS011;23843;51.320;12.340;2022-09-20T05:57:58;0.37;;;0.37;;
38037;SDS011;23843;51.320;12.340;2022-09-20T06:00:41;1.13;;;0.60;;
38037;SDS011;23843;51.320;12.340;2022-09-20T06:03:14;0.50;;;0.50;;
38037;SDS011;23843;51.320;12.340;2022-09-20T06:05:51;0.50;;;0.50;;
38037;SDS011;23843;51.320;12.340;2022-09-20T06:08:28;1.07;;;0.53;;
38037;SDS011;23843;51.320;12.340;2022-09-20T06:11:12;1.13;;;0.50;;
38037;SDS011;23843;51.320;12.340;2022-09-20T06:13:53;0.30;;;0.30;;
38037;SDS011;23843;51.320;12.340;2022-09-20T06:16:30;0.23;;;0.23;;
38037;SDS011;23843;51.320;12.340;2022-09-20T06:19:03;0.30;;;0.30;;
38037;SDS011;23843;51.320;12.340;2022-09-20T06:21:38;0.50;;;0.40;;
38037;SDS011;23843;51.320;12.340;2022-09-20T06:24:22;0.30;;;0.30;;
38037;SDS011;23843;51.320;12.340;2022-09-20T06:26:55;0.73;;;0.50;;
38037;SDS011;23843;51.320;12.340;2022-09-20T06:29:26;0.30;;;0.30;;
38037;SDS011;23843;51.320;12.340;2022-09-20T06:31:54;0.40;;;0.40;;
38037;SDS011;23843;51.320;12.340;2022-09-20T06:34:19;0.30;;;0.30;;
38037;SDS011;23843;51.320;12.340;2022-09-20T06:36:46;1.03;;;0.30;;
38037;SDS011;23843;51.320;12.340;2022-09-20T06:39:19;0.30;;;0.30;;
38037;SDS011;23843;51.320;12.340;2022-09-20T06:41:54;0.87;;;0.43;;
38037;SDS011;23843;51.320;12.340;2022-09-20T06:44:19;0.63;;;0.20;;
38037;SDS011;23843;51.320;12.340;2022-09-20T06:46:45;0.80;;;0.67;;
38037;SDS011;23843;51.320;12.340;2022-09-20T06:49:10;0.73;;;0.73;;
38037;SDS011;23843;51.320;12.340;2022-09-20T06:51:37;0.57;;;0.50;;
38037;SDS011;23843;51.320;12.340;2022-09-20T06:54:03;0.60;;;0.50;;
38037;SDS011;23843;51.320;12.340;2022-09-20T06:56:32;1.03;;;0.50;;
38037;SDS011;23843;51.320;12.340;2022-09-20T06:58:59;1.07;;;0.50;;
38037;SDS011;23843;51.320;12.340;2022-09-20T07:01:24;1.10;;;0.60;;
38037;SDS011;23843;51.320;12.340;2022-09-20T07:03:50;0.50;;;0.50;;
38037;SDS011;23843;51.320;12.340;2022-09-20T07:06:15;0.60;;;0.60;;
38037;SDS011;23843;51.320;12.340;2022-09-20T07:08:40;0.57;;;0.43;;
38037;SDS011;23843;51.320;12.340;2022-09-20T07:11:06;1.00;;;0.97;;
38037;SDS011;23843;51.320;12.340;2022-09-20T07:13:36;0.60;;;0.47;;
38037;SDS011;23843;51.320;12.340;2022-09-20T07:16:02;0.77;;;0.60;;
38037;SDS011;23843;51.320;12.340;2022-09-20T07:18:28;0.53;;;0.47;;
38037;SDS011;23843;51.320;12.340;2022-09-20T07:20:54;1.90;;;0.60;;
38037;SDS011;23843;51.320;12.340;2022-09-20T07:23:19;0.90;;;0.73;;
38037;SDS011;23843;51.320;12.340;2022-09-20T07:25:44;0.87;;;0.60;;
38037;SDS011;23843;51.320;12.340;2022-09-20T07:28:10;1.77;;;1.23;;
38037;SDS011;23843;51.320;12.340;2022-09-20T07:30:36;2.07;;;1.10;;
38037;SDS011;23843;51.320;12.340;2022-09-20T07:33:02;2.40;;;0.90;;
38037;SDS011;23843;51.320;12.340;2022-09-20T07:35:27;1.50;;;1.40;;
38037;SDS011;23843;51.320;12.340;2022-09-20T07:37:56;1.30;;;0.90;;
38037;SDS011;23843;51.320;12.340;2022-09-20T07:40:22;1.50;;;0.70;;
38037;SDS011;23843;51.320;12.340;2022-09-20T07:42:47;2.83;;;1.53;;
38037;SDS011;23843;51.320;12.340;2022-09-20T07:45:13;1.60;;;1.00;;
38037;SDS011;23843;51.320;12.340;2022-09-20T07:47:39;1.37;;;1.00;;
38037;SDS011;23843;51.320;12.340;2022-09-20T07:50:05;1.10;;;0.90;;
38037;SDS011;23843;51.320;12.340;2022-09-20T07:52:31;1.53;;;1.00;;
38037;SDS011;23843;51.320;12.340;2022-09-20T07:54:56;0.93;;;0.80;;
38037;SDS011;23843;51.320;12.340;2022-09-20T07:57:22;1.77;;;1.07;;
38037;SDS011;23843;51.320;12.340;2022-09-20T07:59:47;2.17;;;1.37;;
38037;SDS011;23843;51.320;12.340;2022-09-20T08:02:13;1.30;;;1.03;;
38037;SDS011;23843;51.320;12.340;2022-09-20T08:04:41;2.57;;;1.30;;
38037;SDS011;23843;51.320;12.340;2022-09-20T08:07:06;1.30;;;0.93;;
38037;SDS011;23843;51.320;12.340;2022-09-20T08:09:32;1.80;;;1.17;;
38037;SDS011;23843;51.320;12.340;2022-09-20T08:11:57;2.67;;;1.40;;
38037;SDS011;23843;51.320;12.340;2022-09-20T08:14:22;2.93;;;1.50;;
38037;SDS011;23843;51.320;12.340;2022-09-20T08:16:48;2.33;;;1.40;;
38037;SDS011;23843;51.320;12.340;2022-09-20T08:19:14;4.30;;;1.70;;
38037;SDS011;23843;51.320;12.340;2022-09-20T08:21:43;1.20;;;1.10;;
38037;SDS011;23843;51.320;12.340;2022-09-20T08:24:08;1.40;;;1.20;;
38037;SDS011;23843;51.320;12.340;2022-09-20T08:26:34;1.97;;;1.10;;
38037;SDS011;23843;51.320;12.340;2022-09-20T08:29:00;1.80;;;0.90;;
38037;SDS011;23843;51.320;12.340;2022-09-20T08:31:26;1.63;;;1.20;;
38037;SDS011;23843;51.320;12.340;2022-09-20T08:33:53;1.00;;;0.67;;
38037;SDS011;23843;51.320;12.340;2022-09-20T08:36:19;0.60;;;0.60;;
38037;SDS011;23843;51.320;12.340;2022-09-20T08:38:47;1.43;;;0.70;;
38037;SDS011;23843;51.320;12.340;2022-09-20T08:41:13;1.73;;;1.10;;
38037;SDS011;23843;51.320;12.340;2022-09-20T08:43:42;2.43;;;1.53;;
38037;SDS011;23843;51.320;12.340;2022-09-20T08:46:12;1.63;;;1.10;;
38037;SDS011;23843;51.320;12.340;2022-09-20T08:48:41;1.43;;;1.13;;
38037;SDS011;23843;51.320;12.340;2022-09-20T08:51:08;4.67;;;1.90;;
38037;SDS011;23843;51.320;12.340;2022-09-20T08:53:35;2.40;;;1.77;;
38037;SDS011;23843;51.320;12.340;2022-09-20T08:56:07;1.60;;;1.40;;
38037;SDS011;23843;51.320;12.340;2022-09-20T08:58:32;2.37;;;1.17;;
38037;SDS011;23843;51.320;12.340;2022-09-20T09:00:57;1.80;;;1.17;;
38037;SDS011;23843;51.320;12.340;2022-09-20T09:03:23;2.93;;;1.90;;
38037;SDS011;23843;51.320;12.340;2022-09-20T09:05:51;1.73;;;1.30;;
38037;SDS011;23843;51.320;12.340;2022-09-20T09:08:17;1.47;;;0.90;;
38037;SDS011;23843;51.320;12.340;2022-09-20T09:10:45;1.77;;;1.20;;
38037;SDS011;23843;51.320;12.340;2022-09-20T09:13:20;2.07;;;1.50;;
38037;SDS011;23843;51.320;12.340;2022-09-20T09:15:50;1.97;;;1.30;;
38037;SDS011;23843;51.320;12.340;2022-09-20T09:18:19;1.10;;;1.00;;
38037;SDS011;23843;51.320;12.340;2022-09-20T09:20:44;1.90;;;1.13;;
38037;SDS011;23843;51.320;12.340;2022-09-20T09:23:18;2.23;;;1.37;;
38037;SDS011;23843;51.320;12.340;2022-09-20T09:25:46;2.33;;;1.50;;
38037;SDS011;23843;51.320;12.340;2022-09-20T09:28:12;2.57;;;1.33;;
38037;SDS011;23843;51.320;12.340;2022-09-20T09:30:41;1.93;;;1.60;;
38037;SDS011;23843;51.320;12.340;2022-09-20T09:33:15;1.53;;;1.10;;
38037;SDS011;23843;51.320;12.340;2022-09-20T09:35:53;3.07;;;1.97;;
38037;SDS011;23843;51.320;12.340;2022-09-20T09:38:21;2.03;;;1.20;;
38037;SDS011;23843;51.320;12.340;2022-09-20T09:40:49;1.40;;;1.20;;
38037;SDS011;23843;51.320;12.340;2022-09-20T09:43:18;2.50;;;1.33;;
38037;SDS011;23843;51.320;12.340;2022-09-20T09:45:47;3.63;;;2.50;;
38037;SDS011;23843;51.320;12.340;2022-09-20T09:48:16;1.50;;;1.30;;
38037;SDS011;23843;51.320;12.340;2022-09-20T09:50:43;1.27;;;1.17;;
38037;SDS011;23843;51.320;12.340;2022-09-20T09:53:10;2.20;;;1.20;;
38037;SDS011;23843;51.320;12.340;2022-09-20T09:55:50;1.47;;;1.20;;
38037;SDS011;23843;51.320;12.340;2022-09-20T09:58:27;2.83;;;1.80;;
38037;SDS011;23843;51.320;12.340;2022-09-20T10:01:05;1.20;;;1.00;;
38037;SDS011;23843;51.320;12.340;2022-09-20T10:03:43;2.00;;;1.43;;
38037;SDS011;23843;51.320;12.340;2022-09-20T10:06:17;1.23;;;0.97;;
38037;SDS011;23843;51.320;12.340;2022-09-20T10:08:54;0.90;;;0.70;;
38037;SDS011;23843;51.320;12.340;2022-09-20T10:11:33;2.33;;;1.20;;
38037;SDS011;23843;51.320;12.340;2022-09-20T10:14:15;3.63;;;2.03;;
38037;SDS011;23843;51.320;12.340;2022-09-20T10:16:56;1.63;;;1.10;;
38037;SDS011;23843;51.320;12.340;2022-09-20T10:19:40;3.37;;;2.23;;
38037;SDS011;23843;51.320;12.340;2022-09-20T10:22:19;2.30;;;1.70;;
38037;SDS011;23843;51.320;12.340;2022-09-20T10:24:57;3.43;;;1.80;;
38037;SDS011;23843;51.320;12.340;2022-09-20T10:27:31;2.60;;;1.80;;
38037;SDS011;23843;51.320;12.340;2022-09-20T10:30:06;2.63;;;1.60;;
38037;SDS011;23843;51.320;12.340;2022-09-20T10:32:38;2.43;;;1.70;;
38037;SDS011;23843;51.320;12.340;2022-09-20T10:35:21;1.97;;;1.30;;
38037;SDS011;23843;51.320;12.340;2022-09-20T10:37:57;2.60;;;1.87;;
38037;SDS011;23843;51.320;12.340;2022-09-20T10:40:35;1.93;;;1.60;;
38037;SDS011;23843;51.320;12.340;2022-09-20T10:43:08;2.43;;;1.60;;
38037;SDS011;23843;51.320;12.340;2022-09-20T10:45:43;2.07;;;1.30;;
38037;SDS011;23843;51.320;12.340;2022-09-20T10:48:17;2.37;;;1.50;;
38037;SDS011;23843;51.320;12.340;2022-09-20T10:50:49;3.07;;;2.30;;
38037;SDS011;23843;51.320;12.340;2022-09-20T10:53:21;2.47;;;1.70;;
38037;SDS011;23843;51.320;12.340;2022-09-20T10:55:56;2.37;;;1.90;;
38037;SDS011;23843;51.320;12.340;2022-09-20T10:58:38;2.63;;;1.90;;
38037;SDS011;23843;51.320;12.340;2022-09-20T11:01:28;2.57;;;2.20;;
38037;SDS011;23843;51.320;12.340;2022-09-20T11:07:05;0.80;;;0.70;;
38037;SDS011;23843;51.320;12.340;2022-09-20T11:09:36;0.50;;;0.50;;
38037;SDS011;23843;51.320;12.340;2022-09-20T11:12:08;0.30;;;0.30;;
38037;SDS011;23843;51.320;12.340;2022-09-20T11:14:38;0.30;;;0.30;;
38037;SDS011;23843;51.320;12.340;2022-09-20T11:17:09;0.30;;;0.30;;
38037;SDS011;23843;51.320;12.340;2022-09-20T11:19:45;1.50;;;1.10;;
38037;SDS011;23843;51.320;12.340;2022-09-20T11:22:17;1.77;;;1.60;;
38037;SDS011;23843;51.320;12.340;2022-09-20T11:24:47;1.80;;;1.50;;
38037;SDS011;23843;51.320;12.340;2022-09-20T11:27:19;2.33;;;1.77;;
38037;SDS011;23843;51.320;12.340;2022-09-20T11:29:49;2.10;;;1.50;;
38037;SDS011;23843;51.320;12.340;2022-09-20T11:32:21;2.40;;;1.67;;
38037;SDS011;23843;51.320;12.340;2022-09-20T11:34:52;1.57;;;1.40;;
38037;SDS011;23843;51.320;12.340;2022-09-20T11:37:21;2.03;;;1.43;;
38037;SDS011;23843;51.320;12.340;2022-09-20T11:39:49;1.20;;;1.10;;
38037;SDS011;23843;51.320;12.340;2022-09-20T11:42:18;2.97;;;1.80;;
38037;SDS011;23843;51.320;12.340;2022-09-20T11:44:46;2.77;;;1.97;;
38037;SDS011;23843;51.320;12.340;2022-09-20T11:47:13;1.60;;;1.50;;
38037;SDS011;23843;51.320;12.340;2022-09-20T11:49:48;2.07;;;1.70;;
38037;SDS011;23843;51.320;12.340;2022-09-20T11:52:34;2.00;;;1.60;;
38037;SDS011;23843;51.320;12.340;2022-09-20T11:55:23;1.97;;;1.40;;
38037;SDS011;23843;51.320;12.340;2022-09-20T11:57:58;0.80;;;0.70;;
38037;SDS011;23843;51.320;12.340;2022-09-20T12:00:27;1.00;;;0.80;;
38037;SDS011;23843;51.320;12.340;2022-09-20T12:02:54;0.77;;;0.70;;
38037;SDS011;23843;51.320;12.340;2022-09-20T12:05:25;1.67;;;1.10;;
38037;SDS011;23843;51.320;12.340;2022-09-20T12:07:54;1.47;;;1.13;;
38037;SDS011;23843;51.320;12.340;2022-09-20T12:10:22;1.17;;;0.90;;
38037;SDS011;23843;51.320;12.340;2022-09-20T12:12:54;1.53;;;1.10;;
38037;SDS011;23843;51.320;12.340;2022-09-20T12:15:22;3.53;;;2.03;;
38037;SDS011;23843;51.320;12.340;2022-09-20T12:18:03;1.20;;;1.10;;
38037;SDS011;23843;51.320;12.340;2022-09-20T12:23:46;0.63;;;0.63;;
38037;SDS011;23843;51.320;12.340;2022-09-20T12:26:41;0.60;;;0.60;;
38037;SDS011;23843;51.320;12.340;2022-09-20T12:32:28;0.97;;;0.87;;
38037;SDS011;23843;51.320;12.340;2022-09-20T12:35:09;1.27;;;0.90;;
38037;SDS011;23843;51.320;12.340;2022-09-20T12:38:26;0.60;;;0.60;;
38037;SDS011;23843;51.320;12.340;2022-09-20T12:40:58;0.57;;;0.50;;
38037;SDS011;23843;51.320;12.340;2022-09-20T12:43:26;0.37;;;0.30;;
38037;SDS011;23843;51.320;12.340;2022-09-20T12:45:54;0.50;;;0.50;;
38037;SDS011;23843;51.320;12.340;2022-09-20T12:48:21;0.30;;;0.30;;
38037;SDS011;23843;51.320;12.340;2022-09-20T12:51:16;1.80;;;1.00;;
38037;SDS011;23843;51.320;12.340;2022-09-20T12:53:58;1.13;;;0.90;;
38037;SDS011;23843;51.320;12.340;2022-09-20T12:56:26;0.90;;;0.80;;
38037;SDS011;23843;51.320;12.340;2022-09-20T12:58:52;1.10;;;1.00;;
38037;SDS011;23843;51.320;12.340;2022-09-20T13:01:28;0.90;;;0.80;;
38037;SDS011;23843;51.320;12.340;2022-09-20T13:07:01;1.00;;;0.83;;
38037;SDS011;23843;51.320;12.340;2022-09-20T13:10:19;1.37;;;0.90;;
38037;SDS011;23843;51.320;12.340;2022-09-20T13:12:49;1.70;;;0.50;;
38037;SDS011;23843;51.320;12.340;2022-09-20T13:15:18;0.57;;;0.50;;
38037;SDS011;23843;51.320;12.340;2022-09-20T13:17:44;0.73;;;0.40;;
38037;SDS011;23843;51.320;12.340;2022-09-20T13:20:14;1.17;;;0.70;;
38037;SDS011;23843;51.320;12.340;2022-09-20T13:22:44;0.50;;;0.50;;
38037;SDS011;23843;51.320;12.340;2022-09-20T13:25:12;0.50;;;0.50;;
38037;SDS011;23843;51.320;12.340;2022-09-20T13:27:39;0.30;;;0.30;;
38037;SDS011;23843;51.320;12.340;2022-09-20T13:30:13;1.43;;;0.50;;
38037;SDS011;23843;51.320;12.340;2022-09-20T13:32:42;0.50;;;0.50;;
38037;SDS011;23843;51.320;12.340;2022-09-20T13:35:09;0.70;;;0.70;;
38037;SDS011;23843;51.320;12.340;2022-09-20T13:37:39;1.50;;;1.17;;
38037;SDS011;23843;51.320;12.340;2022-09-20T13:40:16;1.10;;;0.83;;
38037;SDS011;23843;51.320;12.340;2022-09-20T13:42:43;0.80;;;0.80;;
38037;SDS011;23843;51.320;12.340;2022-09-20T13:45:10;0.57;;;0.57;;
38037;SDS011;23843;51.320;12.340;2022-09-20T13:47:41;0.80;;;0.70;;
38037;SDS011;23843;51.320;12.340;2022-09-20T13:50:11;0.50;;;0.47;;
38037;SDS011;23843;51.320;12.340;2022-09-20T13:52:43;0.50;;;0.50;;
38037;SDS011;23843;51.320;12.340;2022-09-20T13:55:30;0.90;;;0.90;;
38037;SDS011;23843;51.320;12.340;2022-09-20T13:57:58;0.60;;;0.30;;
38037;SDS011;23843;51.320;12.340;2022-09-20T14:00:25;0.80;;;0.80;;
38037;SDS011;23843;51.320;12.340;2022-09-20T14:02:52;1.30;;;0.70;;
38037;SDS011;23843;51.320;12.340;2022-09-20T14:05:18;0.63;;;0.50;;
38037;SDS011;23843;51.320;12.340;2022-09-20T14:07:46;1.03;;;0.70;;
38037;SDS011;23843;51.320;12.340;2022-09-20T14:12:58;0.70;;;0.70;;
38037;SDS011;23843;51.320;12.340;2022-09-20T14:15:27;1.03;;;0.70;;
38037;SDS011;23843;51.320;12.340;2022-09-20T14:17:56;0.80;;;0.80;;
38037;SDS011;23843;51.320;12.340;2022-09-20T14:20:22;2.37;;;1.40;;
38037;SDS011;23843;51.320;12.340;2022-09-20T14:22:48;3.30;;;1.30;;
38037;SDS011;23843;51.320;12.340;2022-09-20T14:25:21;2.00;;;1.40;;
38037;SDS011;23843;51.320;12.340;2022-09-20T14:27:53;0.93;;;0.83;;
38037;SDS011;23843;51.320;12.340;2022-09-20T14:30:29;1.20;;;0.80;;
38037;SDS011;23843;51.320;12.340;2022-09-20T14:32:56;0.77;;;0.70;;
38037;SDS011;23843;51.320;12.340;2022-09-20T14:35:23;1.33;;;0.90;;
38037;SDS011;23843;51.320;12.340;2022-09-20T14:37:48;0.60;;;0.60;;
38037;SDS011;23843;51.320;12.340;2022-09-20T14:40:18;2.83;;;1.20;;
38037;SDS011;23843;51.320;12.340;2022-09-20T14:42:46;0.70;;;0.53;;
38037;SDS011;23843;51.320;12.340;2022-09-20T14:45:22;0.50;;;0.40;;
38037;SDS011;23843;51.320;12.340;2022-09-20T14:47:55;0.70;;;0.43;;
38037;SDS011;23843;51.320;12.340;2022-09-20T14:50:26;0.20;;;0.20;;
38037;SDS011;23843;51.320;12.340;2022-09-20T14:53:04;1.23;;;0.60;;
38037;SDS011;23843;51.320;12.340;2022-09-20T14:55:53;1.23;;;0.60;;
38037;SDS011;23843;51.320;12.340;2022-09-20T14:58:20;0.93;;;0.80;;
38037;SDS011;23843;51.320;12.340;2022-09-20T15:00:48;1.57;;;0.70;;
38037;SDS011;23843;51.320;12.340;2022-09-20T15:03:19;2.43;;;1.10;;
38037;SDS011;23843;51.320;12.340;2022-09-20T15:05:49;1.33;;;0.80;;
38037;SDS011;23843;51.320;12.340;2022-09-20T15:08:15;1.03;;;0.80;;
38037;SDS011;23843;51.320;12.340;2022-09-20T15:10:40;1.07;;;0.60;;
38037;SDS011;23843;51.320;12.340;2022-09-20T15:13:07;0.70;;;0.60;;
38037;SDS011;23843;51.320;12.340;2022-09-20T15:15:33;1.83;;;0.90;;
38037;SDS011;23843;51.320;12.340;2022-09-20T15:18:00;1.30;;;0.80;;
38037;SDS011;23843;51.320;12.340;2022-09-20T15:20:25;0.73;;;0.63;;
38037;SDS011;23843;51.320;12.340;2022-09-20T15:22:50;1.87;;;1.17;;
38037;SDS011;23843;51.320;12.340;2022-09-20T15:25:17;0.57;;;0.57;;
38037;SDS011;23843;51.320;12.340;2022-09-20T15:27:44;0.93;;;0.67;;
38037;SDS011;23843;51.320;12.340;2022-09-20T15:30:10;0.93;;;0.67;;
38037;SDS011;23843;51.320;12.340;2022-09-20T15:32:37;0.80;;;0.50;;
38037;SDS011;23843;51.320;12.340;2022-09-20T15:35:04;0.40;;;0.40;;
38037;SDS011;23843;51.320;12.340;2022-09-20T15:37:30;0.93;;;0.57;;
38037;SDS011;23843;51.320;12.340;2022-09-20T15:39:56;2.40;;;0.70;;
38037;SDS011;23843;51.320;12.340;2022-09-20T15:42:21;1.03;;;0.60;;
38037;SDS011;23843;51.320;12.340;2022-09-20T15:44:47;0.77;;;0.70;;
38037;SDS011;23843;51.320;12.340;2022-09-20T15:47:13;0.43;;;0.40;;
38037;SDS011;23843;51.320;12.340;2022-09-20T15:49:38;0.60;;;0.40;;
38037;SDS011;23843;51.320;12.340;2022-09-20T15:52:05;0.70;;;0.43;;
38037;SDS011;23843;51.320;12.340;2022-09-20T15:54:30;0.90;;;0.90;;
38037;SDS011;23843;51.320;12.340;2022-09-20T15:56:56;0.97;;;0.40;;
38037;SDS011;23843;51.320;12.340;2022-09-20T15:59:21;0.30;;;0.30;;
38037;SDS011;23843;51.320;12.340;2022-09-20T16:01:46;0.90;;;0.70;;
38037;SDS011;23843;51.320;12.340;2022-09-20T16:04:13;0.80;;;0.70;;
38037;SDS011;23843;51.320;12.340;2022-09-20T16:06:40;0.87;;;0.80;;
38037;SDS011;23843;51.320;12.340;2022-09-20T16:09:08;0.87;;;0.60;;
38037;SDS011;23843;51.320;12.340;2022-09-20T16:11:34;0.70;;;0.60;;
38037;SDS011;23843;51.320;12.340;2022-09-20T16:14:00;1.07;;;0.97;;
38037;SDS011;23843;51.320;12.340;2022-09-20T16:16:27;1.07;;;0.70;;
38037;SDS011;23843;51.320;12.340;2022-09-20T16:18:53;1.10;;;0.80;;
38037;SDS011;23843;51.320;12.340;2022-09-20T16:21:19;0.90;;;0.80;;
38037;SDS011;23843;51.320;12.340;2022-09-20T16:23:46;0.50;;;0.50;;
38037;SDS011;23843;51.320;12.340;2022-09-20T16:26:14;0.70;;;0.60;;
38037;SDS011;23843;51.320;12.340;2022-09-20T16:28:40;1.53;;;0.70;;
38037;SDS011;23843;51.320;12.340;2022-09-20T16:31:05;0.73;;;0.60;;
38037;SDS011;23843;51.320;12.340;2022-09-20T16:33:51;0.70;;;0.70;;
38037;SDS011;23843;51.320;12.340;2022-09-20T16:36:16;1.40;;;1.30;;
38037;SDS011;23843;51.320;12.340;2022-09-20T16:38:42;0.43;;;0.43;;
38037;SDS011;23843;51.320;12.340;2022-09-20T16:41:07;0.40;;;0.40;;
38037;SDS011;23843;51.320;12.340;2022-09-20T16:43:34;0.40;;;0.40;;
38037;SDS011;23843;51.320;12.340;2022-09-20T16:46:00;0.40;;;0.30;;
38037;SDS011;23843;51.320;12.340;2022-09-20T16:48:25;0.70;;;0.70;;
38037;SDS011;23843;51.320;12.340;2022-09-20T16:50:52;0.87;;;0.77;;
38037;SDS011;23843;51.320;12.340;2022-09-20T16:53:18;0.77;;;0.60;;
38037;SDS011;23843;51.320;12.340;2022-09-20T16:55:43;0.60;;;0.60;;
38037;SDS011;23843;51.320;12.340;2022-09-20T16:58:09;0.40;;;0.40;;
38037;SDS011;23843;51.320;12.340;2022-09-20T17:00:35;1.00;;;0.53;;
38037;SDS011;23843;51.320;12.340;2022-09-20T17:03:01;0.60;;;0.50;;
38037;SDS011;23843;51.320;12.340;2022-09-20T17:05:26;0.90;;;0.90;;
38037;SDS011;23843;51.320;12.340;2022-09-20T17:07:52;0.30;;;0.30;;
38037;SDS011;23843;51.320;12.340;2022-09-20T17:10:18;0.40;;;0.40;;
38037;SDS011;23843;51.320;12.340;2022-09-20T17:12:43;0.20;;;0.20;;
38037;SDS011;23843;51.320;12.340;2022-09-20T17:15:09;0.20;;;0.20;;
38037;SDS011;23843;51.320;12.340;2022-09-20T17:17:36;0.20;;;0.20;;
38037;SDS011;23843;51.320;12.340;2022-09-20T17:20:01;0.10;;;0.10;;
38037;SDS011;23843;51.320;12.340;2022-09-20T17:22:27;0.20;;;0.20;;
38037;SDS011;23843;51.320;12.340;2022-09-20T17:24:52;0.20;;;0.20;;
38037;SDS011;23843;51.320;12.340;2022-09-20T17:27:18;0.10;;;0.10;;
38037;SDS011;23843;51.320;12.340;2022-09-20T17:29:43;0.20;;;0.20;;
38037;SDS011;23843;51.320;12.340;2022-09-20T17:32:08;0.17;;;0.17;;
38037;SDS011;23843;51.320;12.340;2022-09-20T17:34:35;0.37;;;0.30;;
38037;SDS011;23843;51.320;12.340;2022-09-20T17:37:01;0.30;;;0.30;;
38037;SDS011;23843;51.320;12.340;2022-09-20T17:39:26;0.23;;;0.23;;
38037;SDS011;23843;51.320;12.340;2022-09-20T17:41:51;0.47;;;0.30;;
38037;SDS011;23843;51.320;12.340;2022-09-20T17:44:17;0.30;;;0.30;;
38037;SDS011;23843;51.320;12.340;2022-09-20T17:46:43;0.20;;;0.20;;
38037;SDS011;23843;51.320;12.340;2022-09-20T17:49:10;0.20;;;0.20;;
38037;SDS011;23843;51.320;12.340;2022-09-20T17:51:38;0.10;;;0.10;;
38037;SDS011;23843;51.320;12.340;2022-09-20T17:54:05;0.20;;;0.20;;
38037;SDS011;23843;51.320;12.340;2022-09-20T17:56:31;0.30;;;0.30;;
38037;SDS011;23843;51.320;12.340;2022-09-20T17:58:57;0.60;;;0.50;;
38037;SDS011;23843;51.320;12.340;2022-09-20T18:01:26;0.60;;;0.43;;
38037;SDS011;23843;51.320;12.340;2022-09-20T18:03:52;0.40;;;0.30;;
38037;SDS011;23843;51.320;12.340;2022-09-20T18:06:20;0.33;;;0.33;;
38037;SDS011;23843;51.320;12.340;2022-09-20T18:08:49;0.30;;;0.30;;
38037;SDS011;23843;51.320;12.340;2022-09-20T18:11:17;0.20;;;0.20;;
38037;SDS011;23843;51.320;12.340;2022-09-20T18:13:43;0.33;;;0.30;;
38037;SDS011;23843;51.320;12.340;2022-09-20T18:16:09;0.20;;;0.20;;
38037;SDS011;23843;51.320;12.340;2022-09-20T18:18:36;0.20;;;0.20;;
38037;SDS011;23843;51.320;12.340;2022-09-20T18:21:07;0.30;;;0.30;;
38037;SDS011;23843;51.320;12.340;2022-09-20T18:23:34;0.30;;;0.30;;
38037;SDS011;23843;51.320;12.340;2022-09-20T18:26:05;0.30;;;0.27;;
38037;SDS011;23843;51.320;12.340;2022-09-20T18:28:31;0.20;;;0.20;;
38037;SDS011;23843;51.320;12.340;2022-09-20T18:31:00;0.30;;;0.30;;
38037;SDS011;23843;51.320;12.340;2022-09-20T18:33:26;4.23;;;2.30;;
38037;SDS011;23843;51.320;12.340;2022-09-20T18:35:51;2.77;;;1.80;;
38037;SDS011;23843;51.320;12.340;2022-09-20T18:38:16;1.63;;;1.40;;
38037;SDS011;23843;51.320;12.340;2022-09-20T18:40:42;2.13;;;1.13;;
38037;SDS011;23843;51.320;12.340;2022-09-20T18:43:08;1.00;;;0.90;;
38037;SDS011;23843;51.320;12.340;2022-09-20T18:45:34;1.33;;;1.10;;
38037;SDS011;23843;51.320;12.340;2022-09-20T18:48:02;0.70;;;0.70;;
38037;SDS011;23843;51.320;12.340;2022-09-20T18:50:29;0.60;;;0.60;;
38037;SDS011;23843;51.320;12.340;2022-09-20T18:52:54;0.87;;;0.80;;
38037;SDS011;23843;51.320;12.340;2022-09-20T18:55:22;0.60;;;0.50;;
38037;SDS011;23843;51.320;12.340;2022-09-20T18:57:51;0.60;;;0.60;;
38037;SDS011;23843;51.320;12.340;2022-09-20T19:00:20;0.57;;;0.57;;
38037;SDS011;23843;51.320;12.340;2022-09-20T19:02:49;0.40;;;0.40;;
38037;SDS011;23843;51.320;12.340;2022-09-20T19:05:26;0.47;;;0.47;;
38037;SDS011;23843;51.320;12.340;2022-09-20T19:08:01;0.30;;;0.30;;
38037;SDS011;23843;51.320;12.340;2022-09-20T19:10:31;0.50;;;0.50;;
38037;SDS011;23843;51.320;12.340;2022-09-20T19:13:03;0.30;;;0.30;;
38037;SDS011;23843;51.320;12.340;2022-09-20T19:18:40;0.40;;;0.40;;
38037;SDS011;23843;51.320;12.340;2022-09-20T19:21:19;0.50;;;0.40;;
38037;SDS011;23843;51.320;12.340;2022-09-20T19:23:55;0.40;;;0.40;;
38037;SDS011;23843;51.320;12.340;2022-09-20T19:26:31;0.50;;;0.50;;
38037;SDS011;23843;51.320;12.340;2022-09-20T19:28:58;0.60;;;0.50;;
38037;SDS011;23843;51.320;12.340;2022-09-20T19:31:26;0.60;;;0.60;;
38037;SDS011;23843;51.320;12.340;2022-09-20T19:33:54;0.40;;;0.40;;
38037;SDS011;23843;51.320;12.340;2022-09-20T19:36:21;0.40;;;0.40;;
38037;SDS011;23843;51.320;12.340;2022-09-20T19:38:49;0.40;;;0.40;;
38037;SDS011;23843;51.320;12.340;2022-09-20T19:41:26;0.40;;;0.40;;
38037;SDS011;23843;51.320;12.340;2022-09-20T19:44:06;0.33;;;0.33;;
38037;SDS011;23843;51.320;12.340;2022-09-20T19:46:47;0.73;;;0.73;;
38037;SDS011;23843;51.320;12.340;2022-09-20T19:49:22;0.40;;;0.40;;
38037;SDS011;23843;51.320;12.340;2022-09-20T19:51:54;0.20;;;0.20;;
38037;SDS011;23843;51.320;12.340;2022-09-20T19:54:20;0.40;;;0.40;;
38037;SDS011;23843;51.320;12.340;2022-09-20T19:56:50;0.30;;;0.30;;
38037;SDS011;23843;51.320;12.340;2022-09-20T19:59:18;0.50;;;0.50;;